createdAt,value
2024-02-19T00:01:31.028Z,8.10
2024-02-19T00:03:59.592Z,8.10
2024-02-19T00:06:27.605Z,8.10
2024-02-19T00:08:55.930Z,8.10
2024-02-19T00:11:25.470Z,8.10
2024-02-19T00:13:54.913Z,8.10
2024-02-19T00:16:23.270Z,8.20
2024-02-19T00:18:51.407Z,8.10
2024-02-19T00:21:19.424Z,8.20
2024-02-19T00:23:47.452Z,8.20
2024-02-19T00:26:15.385Z,8.20
2024-02-19T00:28:44.686Z,8.20
2024-02-19T00:31:14.225Z,8.20
2024-02-19T00:33:42.718Z,8.20
2024-02-19T00:36:11.220Z,8.20
2024-02-19T00:38:39.232Z,8.20
2024-02-19T00:41:07.345Z,8.20
2024-02-19T00:43:36.250Z,8.20
2024-02-19T00:46:05.871Z,8.20
2024-02-19T00:48:34.747Z,8.20
2024-02-19T00:51:05.329Z,8.20
2024-02-19T00:53:33.512Z,8.20
2024-02-19T00:56:01.578Z,8.20
2024-02-19T00:58:29.598Z,8.20
2024-02-19T01:00:59.657Z,8.20
2024-02-19T01:03:29.382Z,8.20
2024-02-19T01:05:57.906Z,8.10
2024-02-19T01:08:25.895Z,8.10
2024-02-19T01:10:54.147Z,8.10
2024-02-19T01:13:22.428Z,8.10
2024-02-19T01:15:51.269Z,8.10
2024-02-19T01:18:20.272Z,8.10
2024-02-19T01:20:50.048Z,8.10
2024-02-19T01:23:18.208Z,8.10
2024-02-19T01:25:47.323Z,8.10
2024-02-19T01:28:16.028Z,8.10
2024-02-19T01:30:45.455Z,8.00
2024-02-19T01:33:13.849Z,8.10
2024-02-19T01:35:41.979Z,8.00
2024-02-19T01:38:11.381Z,8.00
2024-02-19T01:40:39.391Z,8.00
2024-02-19T01:43:11.210Z,8.00
2024-02-19T01:45:39.671Z,8.00
2024-02-19T01:48:09.392Z,8.00
2024-02-19T01:50:39.058Z,8.00
2024-02-19T01:53:09.890Z,8.00
2024-02-19T01:55:40.878Z,8.00
2024-02-19T01:58:09.305Z,8.00
2024-02-19T02:00:46.254Z,8.00
2024-02-19T02:03:19.065Z,8.00
2024-02-19T02:05:48.490Z,7.90
2024-02-19T02:08:17.612Z,7.90
2024-02-19T02:10:47.205Z,7.90
2024-02-19T02:13:17.349Z,7.90
2024-02-19T02:15:45.604Z,8.00
2024-02-19T02:18:15.763Z,7.90
2024-02-19T02:20:45.882Z,7.90
2024-02-19T02:23:16.017Z,7.90
2024-02-19T02:25:44.102Z,7.90
2024-02-19T02:28:13.536Z,7.90
2024-02-19T02:30:41.534Z,7.90
2024-02-19T02:33:09.892Z,7.90
2024-02-19T02:35:37.834Z,7.90
2024-02-19T02:38:06.046Z,8.00
2024-02-19T02:40:33.991Z,7.90
2024-02-19T02:43:02.536Z,7.90
2024-02-19T02:45:32.134Z,7.90
2024-02-19T02:48:00.162Z,7.90
2024-02-19T02:50:29.063Z,8.00
2024-02-19T02:52:57.442Z,7.90
2024-02-19T02:55:25.465Z,8.00
2024-02-19T02:57:53.520Z,8.00
2024-02-19T03:00:22.861Z,8.00
2024-02-19T03:02:52.853Z,8.00
2024-02-19T03:05:20.850Z,8.00
2024-02-19T03:07:48.967Z,8.00
2024-02-19T03:10:18.867Z,8.00
2024-02-19T03:12:47.051Z,8.00
2024-02-19T03:15:15.580Z,8.10
2024-02-19T03:17:43.781Z,8.00
2024-02-19T03:20:25.197Z,8.10
2024-02-19T03:22:54.356Z,8.00
2024-02-19T03:25:22.620Z,8.00
2024-02-19T03:27:52.999Z,8.10
2024-02-19T03:30:22.665Z,8.10
2024-02-19T03:32:51.169Z,8.10
2024-02-19T03:35:20.490Z,8.10
2024-02-19T03:37:48.480Z,8.10
2024-02-19T03:40:16.937Z,8.10
2024-02-19T03:42:45.811Z,8.10
2024-02-19T03:45:14.026Z,8.10
2024-02-19T03:47:43.276Z,8.10
2024-02-19T03:50:11.677Z,8.10
2024-02-19T03:52:41.013Z,8.00
2024-02-19T03:55:09.580Z,8.00
2024-02-19T03:57:38.312Z,8.10
2024-02-19T04:00:08.238Z,8.10
2024-02-19T04:02:37.280Z,8.10
2024-02-19T04:05:05.986Z,8.10
2024-02-19T04:07:34.025Z,8.10
2024-02-19T04:10:03.433Z,8.10
2024-02-19T04:12:31.459Z,8.20
2024-02-19T04:14:59.716Z,8.10
2024-02-19T04:17:28.213Z,8.10
2024-02-19T04:19:59.369Z,8.20
2024-02-19T04:22:27.379Z,8.10
2024-02-19T04:24:55.878Z,8.10
2024-02-19T04:27:25.717Z,8.10
2024-02-19T04:29:55.084Z,8.10
2024-02-19T04:32:23.445Z,8.20
2024-02-19T04:34:51.479Z,8.20
2024-02-19T04:37:20.631Z,8.10
2024-02-19T04:39:49.166Z,8.10
2024-02-19T04:42:17.337Z,8.20
2024-02-19T04:44:48.425Z,8.20
2024-02-19T04:47:16.434Z,8.10
2024-02-19T04:49:45.048Z,8.20
2024-02-19T04:52:13.367Z,8.10
2024-02-19T04:54:41.770Z,8.10
2024-02-19T04:57:09.772Z,8.10
2024-02-19T04:59:37.782Z,8.10
2024-02-19T05:02:07.322Z,8.10
2024-02-19T05:04:35.589Z,8.10
2024-02-19T05:07:03.818Z,8.10
2024-02-19T05:09:32.963Z,8.10
2024-02-19T05:12:00.904Z,8.10
2024-02-19T05:14:33.172Z,8.00
2024-02-19T05:17:02.649Z,8.00
2024-02-19T05:19:32.448Z,8.00
2024-02-19T05:22:01.902Z,8.00
2024-02-19T05:24:29.915Z,8.00
2024-02-19T05:26:58.176Z,8.00
2024-02-19T05:29:26.191Z,8.00
2024-02-19T05:31:54.133Z,8.00
2024-02-19T05:34:23.115Z,8.00
2024-02-19T05:36:52.546Z,8.00
2024-02-19T05:39:20.533Z,8.00
2024-02-19T05:41:48.496Z,8.00
2024-02-19T05:44:16.479Z,8.00
2024-02-19T05:46:44.741Z,8.00
2024-02-19T05:49:13.030Z,8.00
2024-02-19T05:51:42.722Z,7.90
2024-02-19T05:54:12.682Z,7.90
2024-02-19T05:56:42.505Z,7.90
2024-02-19T05:59:10.652Z,7.90
2024-02-19T06:01:38.722Z,7.90
2024-02-19T06:04:06.985Z,8.00
2024-02-19T06:06:35.086Z,7.90
2024-02-19T06:09:06.102Z,7.90
2024-02-19T06:11:35.500Z,7.90
2024-02-19T06:14:03.619Z,7.90
2024-02-19T06:16:31.957Z,7.90
2024-02-19T06:19:03.050Z,8.00
2024-02-19T06:21:31.422Z,8.00
2024-02-19T06:23:59.549Z,8.00
2024-02-19T06:26:29.354Z,8.00
2024-02-19T06:28:59.117Z,8.00
2024-02-19T06:31:29.103Z,8.00
2024-02-19T06:33:57.707Z,8.00
2024-02-19T06:36:26.245Z,8.00
2024-02-19T06:38:54.442Z,8.00
2024-02-19T06:41:22.489Z,8.00
2024-02-19T06:43:50.486Z,8.00
2024-02-19T06:46:21.212Z,8.00
2024-02-19T06:48:50.672Z,8.00
2024-02-19T06:51:19.811Z,8.00
2024-02-19T06:53:48.242Z,8.00
2024-02-19T06:56:16.232Z,8.00
2024-02-19T06:58:44.256Z,8.00
2024-02-19T07:01:15.385Z,8.10
2024-02-19T07:03:46.336Z,8.00
2024-02-19T07:06:14.690Z,8.10
2024-02-19T07:08:43.142Z,8.10
2024-02-19T07:11:11.209Z,8.10
2024-02-19T07:13:39.272Z,8.10
2024-02-19T07:16:07.985Z,8.10
2024-02-19T07:18:36.584Z,8.10
2024-02-19T07:21:06.359Z,8.10
2024-02-19T07:23:35.361Z,8.20
2024-02-19T07:26:03.462Z,8.20
2024-02-19T07:28:31.555Z,8.20
2024-02-19T07:30:59.607Z,8.20
2024-02-19T07:33:29.541Z,8.30
2024-02-19T07:35:57.724Z,8.30
2024-02-19T07:38:27.090Z,8.40
2024-02-19T07:40:55.265Z,8.40
2024-02-19T07:43:23.315Z,8.40
2024-02-19T07:45:51.539Z,8.40
2024-02-19T07:48:19.813Z,8.50
2024-02-19T07:50:47.882Z,8.50
2024-02-19T07:53:17.977Z,8.50
2024-02-19T07:55:48.043Z,8.60
2024-02-19T07:58:18.310Z,8.60
2024-02-19T08:00:46.933Z,8.70
2024-02-19T08:03:15.586Z,8.60
2024-02-19T08:05:46.491Z,8.60
2024-02-19T08:08:14.495Z,8.60
2024-02-19T08:10:43.408Z,8.60
2024-02-19T08:13:13.085Z,8.50
2024-02-19T08:15:42.492Z,8.50
2024-02-19T08:18:10.867Z,8.50
2024-02-19T08:20:39.443Z,8.50
2024-02-19T08:23:11.178Z,8.50
2024-02-19T08:25:39.572Z,8.50
2024-02-19T08:28:07.932Z,8.50
2024-02-19T08:30:37.501Z,8.50
2024-02-19T08:33:05.702Z,8.50
2024-02-19T08:35:33.886Z,8.50
2024-02-19T08:38:04.467Z,8.50
2024-02-19T08:40:32.648Z,8.50
2024-02-19T08:43:01.986Z,8.60
2024-02-19T08:45:34.437Z,8.60
2024-02-19T08:48:10.161Z,8.60
2024-02-19T08:50:38.512Z,8.60
2024-02-19T08:53:07.300Z,8.70
2024-02-19T08:55:35.798Z,8.70
2024-02-19T08:58:04.252Z,8.70
2024-02-19T09:00:34.054Z,8.70
2024-02-19T09:03:02.829Z,8.80
2024-02-19T09:05:34.410Z,8.80
2024-02-19T09:08:06.047Z,8.80
2024-02-19T09:10:34.349Z,8.90
2024-02-19T09:13:03.974Z,8.90
2024-02-19T09:15:32.466Z,8.90
2024-02-19T09:18:00.780Z,8.90
2024-02-19T09:20:28.971Z,8.90
2024-02-19T09:22:58.371Z,8.90
2024-02-19T09:25:27.004Z,8.90
2024-02-19T09:27:55.200Z,9.00
2024-02-19T09:30:23.333Z,9.00
2024-02-19T09:32:51.379Z,9.10
2024-02-19T09:35:20.761Z,9.10
2024-02-19T09:37:50.518Z,9.20
2024-02-19T09:40:23.153Z,9.40
2024-02-19T09:42:52.369Z,9.60
2024-02-19T09:45:21.147Z,9.80
2024-02-19T09:47:51.128Z,9.80
2024-02-19T09:50:19.329Z,9.80
2024-02-19T09:52:49.921Z,9.80
2024-02-19T09:55:19.370Z,9.70
2024-02-19T09:57:47.468Z,9.70
2024-02-19T10:00:22.457Z,9.70
2024-02-19T10:02:51.135Z,9.90
2024-02-19T10:05:19.481Z,9.80
2024-02-19T10:07:47.927Z,9.90
2024-02-19T10:10:16.012Z,10.00
2024-02-19T10:12:46.508Z,10.10
2024-02-19T10:15:14.642Z,10.10
2024-02-19T10:17:42.804Z,10.10
2024-02-19T10:20:14.415Z,10.20
2024-02-19T10:22:42.859Z,10.40
2024-02-19T10:25:13.580Z,10.60
2024-02-19T10:27:42.060Z,10.70
2024-02-19T10:30:14.518Z,10.70
2024-02-19T10:32:43.857Z,10.70
2024-02-19T10:35:12.520Z,10.70
2024-02-19T10:37:40.586Z,10.70
2024-02-19T10:40:12.576Z,10.80
2024-02-19T10:42:41.060Z,10.90
2024-02-19T10:45:12.210Z,10.60
2024-02-19T10:47:40.577Z,10.40
2024-02-19T10:50:10.656Z,10.30
2024-02-19T10:52:41.022Z,10.20
2024-02-19T10:55:14.506Z,10.10
2024-02-19T10:57:55.841Z,10.00
2024-02-19T11:00:27.197Z,10.20
2024-02-19T11:03:05.623Z,10.20
2024-02-19T11:05:37.583Z,10.40
2024-02-19T11:08:06.668Z,10.30
2024-02-19T11:10:42.288Z,10.40
2024-02-19T11:13:11.445Z,10.40
2024-02-19T11:15:43.787Z,10.40
2024-02-19T11:18:12.931Z,10.30
2024-02-19T11:20:40.929Z,10.20
2024-02-19T11:23:08.964Z,10.20
2024-02-19T11:25:37.693Z,10.30
2024-02-19T11:28:06.805Z,10.30
2024-02-19T11:30:35.172Z,10.30
2024-02-19T11:33:07.274Z,10.30
2024-02-19T11:35:37.136Z,10.20
2024-02-19T11:38:07.104Z,10.20
2024-02-19T11:40:36.036Z,10.30
2024-02-19T11:43:05.349Z,10.40
2024-02-19T11:45:35.144Z,10.30
2024-02-19T11:48:07.630Z,10.20
2024-02-19T11:50:35.804Z,10.20
2024-02-19T11:53:05.628Z,10.30
2024-02-19T11:55:34.959Z,10.50
2024-02-19T11:58:05.097Z,10.60
2024-02-19T12:00:33.812Z,10.70
2024-02-19T12:03:03.800Z,10.70
2024-02-19T12:05:33.665Z,10.90
2024-02-19T12:08:02.419Z,10.90
2024-02-19T12:10:33.381Z,11.10
2024-02-19T12:13:02.567Z,11.20
2024-02-19T12:15:30.780Z,11.20
2024-02-19T12:17:58.869Z,11.30
2024-02-19T12:20:27.563Z,11.20
2024-02-19T12:22:56.944Z,10.90
2024-02-19T12:25:27.290Z,10.50
2024-02-19T12:27:55.441Z,10.30
2024-02-19T12:30:24.461Z,10.30
2024-02-19T12:32:53.223Z,10.20
2024-02-19T12:35:21.707Z,10.50
2024-02-19T12:37:50.585Z,10.60
2024-02-19T12:40:20.254Z,10.70
2024-02-19T12:42:48.552Z,10.70
2024-02-19T12:45:18.341Z,10.70
2024-02-19T12:47:47.166Z,10.80
2024-02-19T12:50:16.741Z,10.80
2024-02-19T12:52:46.034Z,10.60
2024-02-19T12:55:17.750Z,10.50
2024-02-19T12:57:48.907Z,10.60
2024-02-19T13:00:17.280Z,10.60
2024-02-19T13:02:45.420Z,10.70
2024-02-19T13:05:13.632Z,10.80
2024-02-19T13:07:43.540Z,10.90
2024-02-19T13:10:11.928Z,10.90
2024-02-19T13:12:40.085Z,10.80
2024-02-19T13:15:10.196Z,10.70
2024-02-19T13:17:43.156Z,10.60
2024-02-19T13:20:16.125Z,10.40
2024-02-19T13:22:44.806Z,10.30
2024-02-19T13:25:13.329Z,10.40
2024-02-19T13:27:41.362Z,10.40
2024-02-19T13:30:11.890Z,10.40
2024-02-19T13:32:40.944Z,10.50
2024-02-19T13:35:12.386Z,10.30
2024-02-19T13:37:41.502Z,10.30
2024-02-19T13:40:12.027Z,10.30
2024-02-19T13:42:40.633Z,10.30
2024-02-19T13:45:11.483Z,10.20
2024-02-19T13:47:40.061Z,10.20
2024-02-19T13:50:09.099Z,10.10
2024-02-19T13:52:37.773Z,10.10
2024-02-19T13:55:07.643Z,10.00
2024-02-19T13:57:36.303Z,10.00
2024-02-19T14:00:06.176Z,9.90
2024-02-19T14:02:35.637Z,9.90
2024-02-19T14:05:04.004Z,9.90
2024-02-19T14:07:32.625Z,9.90
2024-02-19T14:10:01.517Z,10.00
2024-02-19T14:12:29.924Z,9.90
2024-02-19T14:14:58.290Z,10.00
2024-02-19T14:17:26.447Z,10.00
2024-02-19T14:19:55.882Z,9.80
2024-02-19T14:22:26.655Z,9.90
2024-02-19T14:24:54.801Z,9.80
2024-02-19T14:27:23.500Z,9.90
2024-02-19T14:29:52.748Z,9.70
2024-02-19T14:32:21.486Z,9.70
2024-02-19T14:34:51.865Z,9.70
2024-02-19T14:37:21.587Z,9.70
2024-02-19T14:39:51.307Z,9.70
2024-02-19T14:42:20.213Z,9.70
2024-02-19T14:44:48.164Z,9.70
2024-02-19T14:47:17.050Z,9.70
2024-02-19T14:49:45.463Z,9.80
2024-02-19T14:52:14.239Z,9.80
2024-02-19T14:54:43.777Z,9.80
2024-02-19T14:57:12.082Z,9.70
2024-02-19T14:59:41.482Z,9.70
2024-02-19T15:02:09.787Z,9.70
2024-02-19T15:04:37.935Z,9.60
2024-02-19T15:07:07.668Z,9.60
2024-02-19T15:09:35.780Z,9.60
2024-02-19T15:12:09.088Z,9.50
2024-02-19T15:14:38.170Z,9.40
2024-02-19T15:17:08.143Z,9.40
2024-02-19T15:19:36.284Z,9.40
2024-02-19T15:22:05.585Z,9.40
2024-02-19T15:24:33.538Z,9.40
2024-02-19T15:27:01.965Z,9.30
2024-02-19T15:29:31.274Z,9.30
2024-02-19T15:32:02.734Z,9.30
2024-02-19T15:34:31.108Z,9.30
2024-02-19T15:36:59.249Z,9.30
2024-02-19T15:39:27.292Z,9.20
2024-02-19T15:41:55.676Z,9.20
2024-02-19T15:44:23.607Z,9.20
2024-02-19T15:46:53.533Z,9.30
2024-02-19T15:49:21.884Z,9.30
2024-02-19T15:51:50.928Z,9.20
2024-02-19T15:54:20.464Z,9.20
2024-02-19T15:56:48.472Z,9.20
2024-02-19T15:59:17.343Z,9.20
2024-02-19T16:01:46.510Z,9.10
2024-02-19T16:04:17.046Z,9.10
2024-02-19T16:06:45.210Z,9.10
2024-02-19T16:09:14.470Z,9.10
2024-02-19T16:11:42.839Z,9.00
2024-02-19T16:14:10.783Z,9.00
2024-02-19T16:16:39.849Z,9.00
2024-02-19T16:19:08.604Z,9.00
2024-02-19T16:21:37.989Z,8.90
2024-02-19T16:24:11.340Z,8.90
2024-02-19T16:26:40.257Z,8.90
2024-02-19T16:29:10.789Z,8.90
2024-02-19T16:31:39.959Z,8.90
2024-02-19T16:34:08.892Z,8.80
2024-02-19T16:36:38.845Z,8.80
2024-02-19T16:39:07.381Z,8.80
2024-02-19T16:41:35.309Z,8.80
2024-02-19T16:44:03.456Z,8.80
2024-02-19T16:46:31.621Z,8.70
2024-02-19T16:49:00.817Z,8.70
2024-02-19T16:51:29.276Z,8.60
2024-02-19T16:53:58.707Z,8.60
2024-02-19T16:56:28.714Z,8.60
2024-02-19T16:58:56.988Z,8.50
2024-02-19T17:01:26.279Z,8.50
2024-02-19T17:03:54.529Z,8.40
2024-02-19T17:06:25.165Z,8.40
2024-02-19T17:08:53.168Z,8.40
2024-02-19T17:11:24.766Z,8.40
2024-02-19T17:13:54.288Z,8.30
2024-02-19T17:16:22.315Z,8.20
2024-02-19T17:18:50.391Z,8.20
2024-02-19T17:21:19.022Z,8.10
2024-02-19T17:23:47.943Z,8.10
2024-02-19T17:26:18.302Z,8.10
2024-02-19T17:28:47.684Z,8.10
2024-02-19T17:31:15.915Z,8.00
2024-02-19T17:33:44.886Z,7.90
2024-02-19T17:36:13.144Z,7.90
2024-02-19T17:38:41.112Z,7.90
2024-02-19T17:41:09.134Z,7.80
2024-02-19T17:43:37.174Z,7.80
2024-02-19T17:46:07.167Z,7.70
2024-02-19T17:48:38.042Z,7.60
2024-02-19T17:51:07.780Z,7.60
2024-02-19T17:53:35.792Z,7.60
2024-02-19T17:56:05.152Z,7.50
2024-02-19T17:58:33.164Z,7.50
2024-02-19T18:01:02.431Z,7.50
2024-02-19T18:03:31.843Z,7.50
2024-02-19T18:06:00.753Z,7.50
2024-02-19T18:08:30.610Z,7.40
2024-02-19T18:10:59.900Z,7.40
2024-02-19T18:13:28.050Z,7.40
2024-02-19T18:15:56.051Z,7.40
2024-02-19T18:18:24.230Z,7.40
2024-02-19T18:20:53.792Z,7.40
2024-02-19T18:23:23.351Z,7.40
2024-02-19T18:25:51.293Z,7.40
2024-02-19T18:28:19.545Z,7.40
2024-02-19T18:30:47.622Z,7.40
2024-02-19T18:33:17.246Z,7.40
2024-02-19T18:35:46.206Z,7.40
2024-02-19T18:38:18.636Z,7.40
2024-02-19T18:40:46.714Z,7.50
2024-02-19T18:43:14.746Z,7.50
2024-02-19T18:45:43.864Z,7.50
2024-02-19T18:48:11.834Z,7.50
2024-02-19T18:50:40.265Z,7.60
2024-02-19T18:53:09.855Z,7.60
2024-02-19T18:55:42.016Z,7.50
2024-02-19T18:58:10.030Z,7.50
2024-02-19T19:00:38.723Z,7.50
2024-02-19T19:03:08.230Z,7.50
2024-02-19T19:05:36.428Z,7.50
2024-02-19T19:08:04.961Z,7.50
2024-02-19T19:10:33.000Z,7.50
2024-02-19T19:13:02.889Z,7.50
2024-02-19T19:15:31.794Z,7.50
2024-02-19T19:18:03.470Z,7.40
2024-02-19T19:20:38.449Z,7.50
2024-02-19T19:23:07.377Z,7.40
2024-02-19T19:25:35.475Z,7.40
2024-02-19T19:28:05.639Z,7.40
2024-02-19T19:30:34.821Z,7.40
2024-02-19T19:33:03.557Z,7.40
2024-02-19T19:35:33.688Z,7.40
2024-02-19T19:38:02.182Z,7.40
2024-02-19T19:40:30.702Z,7.40
2024-02-19T19:43:00.564Z,7.40
2024-02-19T19:45:32.260Z,7.40
2024-02-19T19:48:00.296Z,7.40
2024-02-19T19:50:29.303Z,7.40
2024-02-19T19:52:58.184Z,7.40
2024-02-19T19:55:26.490Z,7.40
2024-02-19T19:57:59.960Z,7.40
2024-02-19T20:00:28.822Z,7.40
2024-02-19T20:02:58.526Z,7.40
2024-02-19T20:05:26.670Z,7.40
2024-02-19T20:07:54.770Z,7.40
2024-02-19T20:10:23.091Z,7.40
2024-02-19T20:12:51.556Z,7.30
2024-02-19T20:15:19.735Z,7.30
2024-02-19T20:17:47.925Z,7.30
2024-02-19T20:20:17.430Z,7.30
2024-02-19T20:22:45.413Z,7.30
2024-02-19T20:25:15.177Z,7.30
2024-02-19T20:27:43.965Z,7.30
2024-02-19T20:30:13.201Z,7.30
2024-02-19T20:32:41.262Z,7.30
2024-02-19T20:35:10.487Z,7.30
2024-02-19T20:37:40.486Z,7.30
2024-02-19T20:40:10.583Z,7.30
2024-02-19T20:42:38.653Z,7.20
2024-02-19T20:45:07.736Z,7.30
2024-02-19T20:47:36.903Z,7.20
2024-02-19T20:50:05.771Z,7.20
2024-02-19T20:52:33.935Z,7.20
2024-02-19T20:55:05.829Z,7.10
2024-02-19T20:57:34.989Z,7.20
2024-02-19T21:00:07.534Z,7.10
2024-02-19T21:02:36.059Z,7.10
2024-02-19T21:05:05.105Z,7.10
2024-02-19T21:07:35.216Z,7.10
2024-02-19T21:10:07.742Z,7.10
2024-02-19T21:12:36.253Z,7.10
2024-02-19T21:15:04.434Z,7.10
2024-02-19T21:17:32.389Z,7.10
2024-02-19T21:20:01.018Z,7.10
2024-02-19T21:22:29.605Z,7.00
2024-02-19T21:24:58.940Z,7.00
2024-02-19T21:27:32.034Z,7.00
2024-02-19T21:30:00.184Z,7.00
2024-02-19T21:32:29.748Z,7.00
2024-02-19T21:35:01.014Z,7.00
2024-02-19T21:37:30.888Z,6.90
2024-02-19T21:39:59.335Z,7.00
2024-02-19T21:42:30.395Z,7.00
2024-02-19T21:44:58.367Z,7.10
2024-02-19T21:47:26.421Z,7.10
2024-02-19T21:49:54.481Z,7.10
2024-02-19T21:52:22.947Z,7.10
2024-02-19T21:54:50.998Z,7.10
2024-02-19T21:57:19.534Z,7.10
2024-02-19T21:59:53.856Z,7.20
2024-02-19T22:02:23.553Z,7.10
2024-02-19T22:04:52.757Z,7.20
2024-02-19T22:07:21.015Z,7.20
2024-02-19T22:09:49.164Z,7.20
2024-02-19T22:12:17.186Z,7.20
2024-02-19T22:14:45.172Z,7.20
2024-02-19T22:17:15.039Z,7.10
2024-02-19T22:19:43.231Z,7.20
2024-02-19T22:22:11.221Z,7.10
2024-02-19T22:24:39.912Z,7.20
2024-02-19T22:27:08.071Z,7.20
2024-02-19T22:29:36.087Z,7.20
2024-02-19T22:32:04.491Z,7.20
2024-02-19T22:34:34.455Z,7.20
2024-02-19T22:37:03.964Z,7.20
2024-02-19T22:39:32.634Z,7.20
2024-02-19T22:42:02.227Z,7.10
2024-02-19T22:44:30.363Z,7.10
2024-02-19T22:46:58.319Z,7.20
2024-02-19T22:49:26.374Z,7.20
2024-02-19T22:51:55.791Z,7.20
2024-02-19T22:54:23.838Z,7.10
2024-02-19T22:56:52.062Z,7.20
2024-02-19T22:59:22.007Z,7.20
2024-02-19T23:01:50.985Z,7.20
2024-02-19T23:04:19.113Z,7.20
2024-02-19T23:06:47.608Z,7.20
2024-02-19T23:09:17.788Z,7.20
2024-02-19T23:11:46.139Z,7.10
2024-02-19T23:14:14.473Z,7.10
2024-02-19T23:16:42.898Z,7.10
2024-02-19T23:19:11.100Z,7.10
2024-02-19T23:21:39.276Z,7.00
2024-02-19T23:24:08.141Z,7.00
2024-02-19T23:26:37.460Z,7.00
2024-02-19T23:29:05.409Z,7.00
2024-02-19T23:31:33.681Z,6.90
2024-02-19T23:34:01.881Z,6.90
2024-02-19T23:36:30.620Z,6.90
2024-02-19T23:38:58.677Z,6.80
2024-02-19T23:41:27.061Z,6.80
2024-02-19T23:43:56.422Z,6.80
2024-02-19T23:46:25.075Z,6.80
2024-02-19T23:48:53.182Z,6.80
2024-02-19T23:51:21.325Z,6.80
2024-02-19T23:53:49.296Z,6.80
2024-02-19T23:56:17.330Z,6.80
2024-02-19T23:58:45.383Z,6.70
